createdAt,value
2019-04-06T00:00:09.012Z,8.55
2019-04-06T00:01:09.010Z,8.45
2019-04-06T00:02:08.960Z,8.37
2019-04-06T00:03:08.982Z,8.44
2019-04-06T00:04:08.939Z,8.33
2019-04-06T00:05:08.930Z,8.26
2019-04-06T00:06:08.943Z,8.29
2019-04-06T00:07:08.914Z,8.15
2019-04-06T00:08:08.951Z,8.11
2019-04-06T00:09:08.885Z,8.08
2019-04-06T00:10:08.877Z,8.01
2019-04-06T00:11:08.862Z,7.95
2019-04-06T00:12:08.848Z,8.08
2019-04-06T00:13:08.894Z,7.87
2019-04-06T00:14:08.825Z,7.86
2019-04-06T00:15:08.814Z,7.80
2019-04-06T00:16:08.809Z,7.80
2019-04-06T00:17:08.793Z,7.74
2019-04-06T00:18:08.805Z,7.83
2019-04-06T00:19:08.790Z,7.61
2019-04-06T00:20:08.758Z,7.67
2019-04-06T00:21:08.745Z,7.69
2019-04-06T00:22:08.739Z,7.55
2019-04-06T00:23:08.752Z,7.58
2019-04-06T00:24:08.713Z,7.52
2019-04-06T00:25:08.751Z,7.52
2019-04-06T00:26:08.710Z,7.42
2019-04-06T00:27:08.724Z,7.42
2019-04-06T00:28:08.673Z,7.40
2019-04-06T00:29:08.683Z,7.35
2019-04-06T00:30:08.647Z,7.34
2019-04-06T00:31:08.652Z,7.25
2019-04-06T00:32:08.633Z,7.24
2019-04-06T00:33:08.617Z,7.24
2019-04-06T00:34:08.635Z,7.15
2019-04-06T00:35:08.591Z,7.10
2019-04-06T00:36:08.574Z,7.05
2019-04-06T00:37:08.586Z,7.05
2019-04-06T00:38:08.554Z,6.94
2019-04-06T00:39:08.572Z,6.95
2019-04-06T00:40:08.537Z,6.88
2019-04-06T00:41:08.533Z,6.81
2019-04-06T00:42:08.578Z,6.80
2019-04-06T00:43:08.517Z,6.76
2019-04-06T00:44:08.527Z,6.69
2019-04-06T00:45:08.478Z,6.73
2019-04-06T00:46:08.466Z,6.76
2019-04-06T00:47:08.450Z,6.80
2019-04-06T00:48:08.446Z,6.69
2019-04-06T00:49:08.499Z,6.64
2019-04-06T00:50:08.420Z,6.61
2019-04-06T00:51:08.415Z,6.59
2019-04-06T00:52:08.396Z,6.55
2019-04-06T00:53:08.391Z,6.58
2019-04-06T00:54:08.408Z,6.55
2019-04-06T00:55:08.383Z,6.55
2019-04-06T00:56:08.357Z,6.55
2019-04-06T00:57:08.375Z,6.46
2019-04-06T00:58:08.324Z,6.44
2019-04-06T00:59:08.323Z,6.40
2019-04-06T01:00:08.453Z,6.37
2019-04-06T01:01:08.320Z,6.33
2019-04-06T01:02:08.286Z,6.36
2019-04-06T01:03:08.274Z,6.27
2019-04-06T01:04:09.068Z,6.18
2019-04-06T01:05:08.259Z,6.14
2019-04-06T01:06:08.236Z,6.19
2019-04-06T01:07:08.242Z,6.34
2019-04-06T01:08:08.250Z,6.28
2019-04-06T01:09:08.207Z,6.19
2019-04-06T01:10:08.199Z,6.25
2019-04-06T01:11:08.183Z,6.25
2019-04-06T01:12:08.182Z,6.14
2019-04-06T01:13:08.215Z,6.18
2019-04-06T01:14:08.151Z,6.15
2019-04-06T01:15:08.146Z,6.18
2019-04-06T01:16:08.129Z,6.15
2019-04-06T01:17:08.143Z,6.15
2019-04-06T01:18:08.118Z,6.14
2019-04-06T01:19:08.116Z,6.08
2019-04-06T01:20:08.087Z,6.11
2019-04-06T01:21:08.080Z,6.08
2019-04-06T01:22:08.087Z,6.03
2019-04-06T01:23:08.050Z,6.09
2019-04-06T01:24:08.038Z,6.03
2019-04-06T01:25:08.085Z,5.99
2019-04-06T01:26:08.031Z,6.03
2019-04-06T01:27:08.034Z,6.06
2019-04-06T01:28:07.995Z,5.97
2019-04-06T01:29:07.981Z,5.94
2019-04-06T01:30:08.000Z,5.99
2019-04-06T01:31:07.973Z,5.97
2019-04-06T01:32:07.982Z,6.01
2019-04-06T01:33:18.716Z,5.96
2019-04-06T01:34:07.977Z,6.00
2019-04-06T01:35:07.964Z,5.96
2019-04-06T01:36:07.961Z,5.94
2019-04-06T01:37:07.990Z,5.93
2019-04-06T01:38:07.941Z,5.94
2019-04-06T01:39:07.901Z,5.86
2019-04-06T01:40:08.024Z,5.90
2019-04-06T01:41:07.903Z,5.91
2019-04-06T01:42:07.985Z,5.83
2019-04-06T01:43:08.002Z,5.89
2019-04-06T01:44:07.836Z,5.89
2019-04-06T01:45:07.807Z,5.85
2019-04-06T01:46:07.810Z,5.85
2019-04-06T01:47:07.796Z,5.90
2019-04-06T01:48:07.776Z,5.93
2019-04-06T01:49:07.755Z,5.91
2019-04-06T01:50:07.748Z,5.91
2019-04-06T01:51:07.768Z,5.91
2019-04-06T01:52:07.749Z,5.91
2019-04-06T01:53:07.720Z,5.91
2019-04-06T01:54:07.700Z,5.79
2019-04-06T01:55:07.690Z,5.90
2019-04-06T01:56:17.983Z,5.82
2019-04-06T01:57:08.766Z,5.78
2019-04-06T01:58:07.680Z,5.76
2019-04-06T01:59:07.653Z,5.82
2019-04-06T02:00:07.640Z,5.71
2019-04-06T02:01:07.684Z,5.72
2019-04-06T02:02:07.630Z,5.78
2019-04-06T02:03:07.600Z,5.71
2019-04-06T02:04:07.589Z,5.68
2019-04-06T02:05:07.599Z,5.72
2019-04-06T02:06:07.565Z,5.74
2019-04-06T02:07:07.615Z,5.71
2019-04-06T02:08:07.546Z,5.68
2019-04-06T02:09:07.529Z,5.71
2019-04-06T02:10:07.526Z,5.68
2019-04-06T02:11:07.518Z,5.64
2019-04-06T02:12:07.523Z,5.65
2019-04-06T02:13:07.557Z,5.65
2019-04-06T02:14:07.475Z,5.61
2019-04-06T02:15:07.465Z,5.53
2019-04-06T02:16:07.456Z,5.56
2019-04-06T02:17:07.449Z,5.56
2019-04-06T02:18:07.496Z,5.58
2019-04-06T02:19:07.419Z,5.58
2019-04-06T02:20:07.415Z,5.57
2019-04-06T02:21:07.404Z,5.63
2019-04-06T02:22:07.387Z,5.54
2019-04-06T02:23:07.370Z,5.49
2019-04-06T02:24:07.405Z,5.54
2019-04-06T02:25:07.364Z,5.53
2019-04-06T02:26:07.346Z,5.51
2019-04-06T02:27:07.337Z,5.51
2019-04-06T02:28:07.328Z,5.51
2019-04-06T02:29:07.335Z,5.48
2019-04-06T02:30:07.342Z,5.48
2019-04-06T02:31:07.287Z,5.48
2019-04-06T02:32:07.378Z,5.48
2019-04-06T02:33:07.270Z,5.42
2019-04-06T02:34:07.274Z,5.51
2019-04-06T02:35:07.264Z,5.51
2019-04-06T02:36:07.417Z,5.39
2019-04-06T02:37:07.226Z,5.31
2019-04-06T02:38:07.211Z,5.40
2019-04-06T02:39:07.434Z,5.33
2019-04-06T02:40:08.112Z,5.28
2019-04-06T02:41:07.209Z,5.31
2019-04-06T02:42:07.203Z,5.30
2019-04-06T02:43:07.280Z,5.24
2019-04-06T02:44:07.162Z,5.18
2019-04-06T02:45:07.131Z,5.18
2019-04-06T02:46:07.120Z,5.18
2019-04-06T02:47:07.262Z,5.18
2019-04-06T02:48:07.130Z,5.15
2019-04-06T02:49:07.088Z,5.10
2019-04-06T02:50:07.076Z,5.15
2019-04-06T02:51:07.210Z,5.00
2019-04-06T02:52:07.074Z,5.09
2019-04-06T02:53:07.043Z,5.04
2019-04-06T02:54:07.049Z,5.09
2019-04-06T02:55:07.017Z,5.13
2019-04-06T02:56:07.042Z,5.09
2019-04-06T02:57:07.003Z,5.03
2019-04-06T02:58:07.085Z,5.09
2019-04-06T02:59:06.989Z,5.09
2019-04-06T03:00:06.995Z,5.09
2019-04-06T03:01:06.954Z,5.10
2019-04-06T03:02:06.939Z,5.02
2019-04-06T03:03:06.959Z,4.92
2019-04-06T03:04:06.929Z,4.89
2019-04-06T03:05:06.919Z,4.94
2019-04-06T03:06:07.098Z,4.96
2019-04-06T03:07:06.886Z,4.96
2019-04-06T03:08:06.873Z,4.86
2019-04-06T03:09:06.980Z,4.88
2019-04-06T03:10:06.849Z,4.96
2019-04-06T03:11:06.843Z,4.80
2019-04-06T03:12:06.858Z,4.96
2019-04-06T03:13:06.867Z,4.82
2019-04-06T03:14:06.817Z,4.77
2019-04-06T03:15:06.953Z,4.94
2019-04-06T03:16:06.784Z,4.86
2019-04-06T03:17:06.771Z,4.88
2019-04-06T03:18:06.820Z,4.86
2019-04-06T03:19:06.755Z,4.78
2019-04-06T03:20:06.914Z,4.85
2019-04-06T03:21:06.728Z,4.84
2019-04-06T03:22:06.733Z,4.80
2019-04-06T03:23:06.708Z,4.80
2019-04-06T03:24:06.739Z,4.84
2019-04-06T03:25:06.753Z,4.78
2019-04-06T03:26:06.706Z,4.75
2019-04-06T03:27:06.662Z,4.78
2019-04-06T03:28:06.652Z,4.78
2019-04-06T03:29:06.709Z,4.73
2019-04-06T03:30:06.927Z,4.65
2019-04-06T03:31:06.648Z,4.77
2019-04-06T03:32:06.634Z,4.77
2019-04-06T03:33:06.625Z,4.75
2019-04-06T03:34:06.589Z,4.66
2019-04-06T03:35:06.792Z,4.69
2019-04-06T03:36:06.563Z,4.67
2019-04-06T03:37:06.598Z,4.66
2019-04-06T03:38:06.542Z,4.65
2019-04-06T03:39:06.537Z,4.70
2019-04-06T03:40:06.837Z,4.60
2019-04-06T03:41:06.509Z,4.63
2019-04-06T03:42:06.528Z,4.67
2019-04-06T03:43:06.618Z,4.65
2019-04-06T03:44:06.476Z,4.63
2019-04-06T03:45:06.463Z,4.62
2019-04-06T03:46:06.451Z,4.58
2019-04-06T03:47:06.438Z,4.63
2019-04-06T03:48:06.458Z,4.62
2019-04-06T03:49:06.454Z,4.59
2019-04-06T03:50:06.402Z,4.62
2019-04-06T03:51:06.395Z,4.55
2019-04-06T03:52:06.387Z,4.51
2019-04-06T03:53:06.408Z,4.48
2019-04-06T03:54:06.438Z,4.48
2019-04-06T03:55:06.369Z,4.51
2019-04-06T03:56:06.345Z,4.55
2019-04-06T03:57:14.451Z,4.48
2019-04-06T03:58:07.429Z,4.48
2019-04-06T03:59:06.563Z,4.54
2019-04-06T04:00:06.298Z,4.48
2019-04-06T04:01:06.305Z,4.32
2019-04-06T04:02:06.270Z,4.47
2019-04-06T04:03:06.262Z,4.34
2019-04-06T04:04:06.268Z,4.54
2019-04-06T04:05:06.250Z,4.48
2019-04-06T04:06:06.225Z,4.51
2019-04-06T04:07:06.263Z,4.37
2019-04-06T04:08:06.212Z,4.37
2019-04-06T04:09:06.226Z,4.40
2019-04-06T04:10:06.185Z,4.41
2019-04-06T04:11:06.351Z,4.37
2019-04-06T04:12:06.170Z,4.34
2019-04-06T04:13:06.194Z,4.36
2019-04-06T04:14:06.205Z,4.34
2019-04-06T04:15:06.172Z,4.26
2019-04-06T04:16:06.263Z,4.15
2019-04-06T04:17:06.141Z,4.18
2019-04-06T04:18:06.229Z,4.14
2019-04-06T04:19:06.112Z,4.14
2019-04-06T04:20:06.084Z,4.18
2019-04-06T04:21:06.258Z,4.09
2019-04-06T04:22:06.055Z,4.12
2019-04-06T04:23:06.042Z,4.08
2019-04-06T04:24:06.044Z,4.09
2019-04-06T04:25:06.036Z,4.08
2019-04-06T04:26:06.063Z,4.12
2019-04-06T04:27:06.344Z,4.12
2019-04-06T04:28:05.989Z,4.06
2019-04-06T04:29:05.978Z,4.12
2019-04-06T04:30:05.958Z,4.15
2019-04-06T04:31:05.950Z,4.08
2019-04-06T04:32:05.969Z,4.12
2019-04-06T04:33:05.966Z,4.15
2019-04-06T04:34:05.908Z,4.04
2019-04-06T04:35:05.905Z,4.09
2019-04-06T04:36:05.910Z,4.05
2019-04-06T04:37:05.876Z,4.00
2019-04-06T04:38:06.068Z,3.98
2019-04-06T04:39:05.983Z,3.96
2019-04-06T04:40:05.857Z,4.02
2019-04-06T04:41:05.863Z,3.97
2019-04-06T04:42:05.829Z,3.91
2019-04-06T04:43:05.873Z,3.96
2019-04-06T04:44:05.823Z,4.00
2019-04-06T04:45:05.887Z,3.93
2019-04-06T04:46:05.781Z,3.90
2019-04-06T04:47:05.777Z,3.84
2019-04-06T04:48:05.763Z,3.86
2019-04-06T04:49:05.763Z,3.91
2019-04-06T04:50:05.898Z,3.91
2019-04-06T04:51:05.726Z,3.91
2019-04-06T04:52:05.730Z,3.98
2019-04-06T04:53:05.697Z,4.00
2019-04-06T04:54:05.735Z,3.98
2019-04-06T04:55:05.723Z,3.96
2019-04-06T04:56:05.681Z,3.97
2019-04-06T04:57:05.654Z,3.84
2019-04-06T04:58:05.666Z,3.87
2019-04-06T04:59:05.630Z,3.86
2019-04-06T05:00:05.681Z,3.87
2019-04-06T05:01:05.621Z,3.83
2019-04-06T05:02:05.599Z,3.97
2019-04-06T05:03:05.613Z,3.93
2019-04-06T05:04:05.603Z,4.02
2019-04-06T05:05:05.602Z,4.00
2019-04-06T05:06:05.568Z,4.06
2019-04-06T05:07:05.546Z,4.09
2019-04-06T05:08:05.537Z,4.12
2019-04-06T05:09:05.523Z,4.12
2019-04-06T05:10:05.710Z,4.22
2019-04-06T05:11:05.576Z,4.05
2019-04-06T05:12:05.494Z,4.08
2019-04-06T05:13:05.659Z,4.14
2019-04-06T05:14:05.723Z,4.24
2019-04-06T05:15:05.494Z,4.20
2019-04-06T05:16:05.471Z,4.22
2019-04-06T05:17:05.503Z,4.18
2019-04-06T05:18:05.421Z,4.20
2019-04-06T05:19:05.424Z,4.30
2019-04-06T05:20:05.402Z,4.30
2019-04-06T05:21:05.402Z,4.34
2019-04-06T05:22:05.451Z,4.36
2019-04-06T05:23:05.502Z,4.34
2019-04-06T05:24:05.349Z,4.40
2019-04-06T05:25:05.578Z,4.41
2019-04-06T05:26:05.395Z,4.54
2019-04-06T05:27:05.336Z,4.48
2019-04-06T05:28:05.373Z,4.50
2019-04-06T05:29:05.317Z,4.50
2019-04-06T05:30:05.413Z,4.44
2019-04-06T05:31:05.276Z,4.50
2019-04-06T05:32:05.275Z,4.51
2019-04-06T05:33:05.259Z,4.45
2019-04-06T05:34:05.258Z,4.48
2019-04-06T05:35:05.255Z,4.65
2019-04-06T05:36:05.217Z,4.62
2019-04-06T05:37:05.206Z,4.65
2019-04-06T05:38:05.198Z,4.66
2019-04-06T05:39:05.231Z,4.73
2019-04-06T05:40:05.383Z,4.72
2019-04-06T05:41:05.209Z,4.84
2019-04-06T05:42:05.183Z,4.75
2019-04-06T05:43:05.140Z,4.82
2019-04-06T05:44:05.165Z,4.92
2019-04-06T05:45:05.137Z,4.92
2019-04-06T05:46:05.113Z,5.03
2019-04-06T05:47:05.096Z,5.09
2019-04-06T05:48:05.112Z,5.04
2019-04-06T05:49:05.071Z,5.06
2019-04-06T05:50:05.279Z,5.17
2019-04-06T05:51:05.068Z,5.10
2019-04-06T05:52:05.038Z,5.17
2019-04-06T05:53:05.031Z,5.17
2019-04-06T05:54:05.039Z,5.28
2019-04-06T05:55:05.005Z,5.28
2019-04-06T05:56:05.008Z,5.33
2019-04-06T05:57:05.121Z,5.46
2019-04-06T05:58:09.852Z,5.49
2019-04-06T05:59:05.965Z,5.61
2019-04-06T06:00:04.985Z,5.58
2019-04-06T06:01:04.954Z,5.72
2019-04-06T06:02:04.930Z,5.71
2019-04-06T06:03:05.124Z,5.82
2019-04-06T06:04:04.906Z,5.86
2019-04-06T06:05:04.900Z,5.94
2019-04-06T06:06:04.963Z,5.93
2019-04-06T06:07:04.869Z,5.91
2019-04-06T06:08:04.863Z,5.96
2019-04-06T06:09:04.860Z,6.03
2019-04-06T06:10:04.848Z,6.11
2019-04-06T06:11:05.060Z,6.15
2019-04-06T06:12:04.894Z,6.27
2019-04-06T06:13:04.805Z,6.38
2019-04-06T06:14:04.796Z,6.73
2019-04-06T06:15:04.786Z,7.32
2019-04-06T06:16:04.881Z,8.08
2019-04-06T06:17:04.802Z,8.84
2019-04-06T06:18:04.781Z,9.58
2019-04-06T06:19:04.756Z,10.22
2019-04-06T06:20:04.750Z,10.81
2019-04-06T06:21:04.719Z,11.33
2019-04-06T06:22:04.724Z,11.83
2019-04-06T06:23:04.708Z,12.49
2019-04-06T06:24:04.681Z,12.95
2019-04-06T06:25:04.962Z,13.38
2019-04-06T06:26:04.667Z,13.81
2019-04-06T06:27:04.651Z,14.21
2019-04-06T06:28:13.740Z,14.62
2019-04-06T06:29:05.690Z,15.01
2019-04-06T06:30:04.615Z,15.50
2019-04-06T06:31:04.627Z,15.82
2019-04-06T06:32:04.590Z,16.11
2019-04-06T06:33:04.592Z,16.38
2019-04-06T06:34:04.587Z,16.89
2019-04-06T06:35:04.562Z,17.30
2019-04-06T06:36:04.553Z,17.51
2019-04-06T06:37:04.581Z,17.82
2019-04-06T06:38:04.532Z,17.99
2019-04-06T06:39:04.542Z,18.32
2019-04-06T06:40:04.511Z,18.50
2019-04-06T06:41:04.485Z,18.66
2019-04-06T06:42:04.486Z,18.76
2019-04-06T06:43:04.700Z,19.06
2019-04-06T06:44:04.563Z,19.22
2019-04-06T06:45:04.479Z,19.51
2019-04-06T06:46:04.543Z,19.62
2019-04-06T06:47:04.424Z,19.66
2019-04-06T06:48:04.418Z,19.92
2019-04-06T06:49:04.423Z,20.02
2019-04-06T06:50:05.147Z,20.20
2019-04-06T06:51:04.386Z,20.31
2019-04-06T06:52:04.371Z,20.39
2019-04-06T06:53:04.364Z,20.59
2019-04-06T06:54:04.359Z,20.73
2019-04-06T06:55:04.362Z,20.89
2019-04-06T06:56:04.455Z,20.94
2019-04-06T06:57:04.310Z,20.85
2019-04-06T06:58:04.555Z,20.92
2019-04-06T06:59:04.297Z,20.80
2019-04-06T07:00:04.288Z,20.73
2019-04-06T07:01:04.290Z,20.85
2019-04-06T07:02:04.265Z,20.84
2019-04-06T07:03:04.258Z,21.04
2019-04-06T07:04:04.240Z,21.13
2019-04-06T07:05:04.331Z,21.24
2019-04-06T07:06:04.504Z,21.40
2019-04-06T07:07:04.205Z,21.43
2019-04-06T07:08:04.219Z,21.35
2019-04-06T07:09:04.180Z,21.32
2019-04-06T07:10:06.001Z,21.35
2019-04-06T07:11:04.201Z,21.31
2019-04-06T07:12:04.153Z,21.46
2019-04-06T07:13:04.142Z,21.38
2019-04-06T07:14:04.170Z,21.52
2019-04-06T07:15:04.117Z,21.37
2019-04-06T07:16:04.533Z,21.47
2019-04-06T07:17:04.222Z,21.42
2019-04-06T07:18:04.080Z,21.25
2019-04-06T07:19:04.121Z,21.24
2019-04-06T07:20:04.066Z,21.21
2019-04-06T07:21:04.113Z,21.16
2019-04-06T07:22:04.456Z,20.98
2019-04-06T07:23:04.271Z,20.95
2019-04-06T07:24:04.013Z,20.87
2019-04-06T07:25:04.007Z,20.85
2019-04-06T07:26:03.996Z,20.87
2019-04-06T07:27:03.979Z,20.79
2019-04-06T07:28:04.018Z,20.61
2019-04-06T07:29:04.615Z,20.55
2019-04-06T07:30:03.954Z,20.31
2019-04-06T07:31:03.940Z,20.28
2019-04-06T07:32:03.935Z,20.08
2019-04-06T07:33:03.929Z,20.05
2019-04-06T07:34:03.938Z,19.87
2019-04-06T07:35:03.944Z,19.69
2019-04-06T07:36:03.882Z,19.63
2019-04-06T07:37:03.868Z,19.32
2019-04-06T07:38:03.972Z,19.18
2019-04-06T07:39:03.852Z,18.95
2019-04-06T07:40:03.842Z,18.69
2019-04-06T07:41:04.023Z,18.51
2019-04-06T07:42:03.839Z,18.48
2019-04-06T07:43:03.802Z,18.36
2019-04-06T07:44:13.380Z,18.33
2019-04-06T07:45:03.939Z,18.30
2019-04-06T07:46:03.955Z,18.25
2019-04-06T07:47:03.844Z,18.27
2019-04-06T07:48:03.866Z,18.30
2019-04-06T07:49:09.226Z,18.30
2019-04-06T07:50:04.845Z,18.20
2019-04-06T07:51:03.720Z,18.20
2019-04-06T07:52:03.746Z,18.05
2019-04-06T07:53:03.697Z,18.05
2019-04-06T07:54:03.682Z,17.97
2019-04-06T07:55:03.677Z,17.93
2019-04-06T07:56:03.696Z,17.86
2019-04-06T07:57:03.642Z,17.82
2019-04-06T07:58:03.645Z,17.75
2019-04-06T07:59:03.657Z,17.78
2019-04-06T08:00:03.627Z,17.74
2019-04-06T08:01:03.867Z,17.79
2019-04-06T08:02:03.596Z,17.90
2019-04-06T08:03:03.729Z,17.78
2019-04-06T08:04:03.565Z,17.79
2019-04-06T08:05:03.745Z,17.68
2019-04-06T08:06:03.636Z,17.74
2019-04-06T08:07:03.574Z,17.70
2019-04-06T08:08:04.173Z,17.54
2019-04-06T08:09:03.514Z,17.52
2019-04-06T08:10:03.498Z,17.52
2019-04-06T08:11:03.650Z,17.51
2019-04-06T08:12:03.516Z,17.48
2019-04-06T08:13:03.463Z,17.33
2019-04-06T08:14:03.868Z,17.26
2019-04-06T08:15:03.441Z,17.38
2019-04-06T08:16:03.481Z,17.38
2019-04-06T08:17:03.427Z,17.40
2019-04-06T08:18:03.693Z,17.31
2019-04-06T08:19:03.400Z,17.30
2019-04-06T08:20:03.397Z,17.25
2019-04-06T08:21:03.381Z,17.31
2019-04-06T08:22:03.384Z,17.30
2019-04-06T08:23:03.385Z,17.16
2019-04-06T08:24:03.350Z,17.22
2019-04-06T08:25:03.361Z,17.21
2019-04-06T08:26:03.329Z,16.97
2019-04-06T08:27:03.328Z,16.91
2019-04-06T08:28:03.303Z,16.91
2019-04-06T08:29:03.287Z,16.89
2019-04-06T08:30:03.517Z,16.76
2019-04-06T08:31:03.281Z,16.79
2019-04-06T08:32:03.304Z,16.81
2019-04-06T08:33:03.243Z,16.88
2019-04-06T08:34:03.234Z,16.79
2019-04-06T08:35:03.218Z,16.79
2019-04-06T08:36:03.220Z,16.76
2019-04-06T08:37:03.327Z,16.76
2019-04-06T08:38:03.226Z,16.81
2019-04-06T08:39:03.175Z,16.81
2019-04-06T08:40:03.170Z,16.91
2019-04-06T08:41:03.167Z,16.85
2019-04-06T08:42:03.143Z,16.85
2019-04-06T08:43:03.141Z,16.79
2019-04-06T08:44:03.299Z,16.67
2019-04-06T08:45:03.112Z,16.53
2019-04-06T08:46:03.098Z,16.46
2019-04-06T08:47:03.097Z,16.35
2019-04-06T08:48:03.101Z,16.39
2019-04-06T08:49:03.363Z,16.41
2019-04-06T08:50:03.085Z,16.45
2019-04-06T08:51:03.688Z,16.48
2019-04-06T08:52:03.033Z,16.41
2019-04-06T08:53:03.019Z,16.41
2019-04-06T08:54:03.204Z,16.38
2019-04-06T08:55:02.993Z,16.33
2019-04-06T08:56:03.088Z,16.34
2019-04-06T08:57:02.972Z,16.30
2019-04-06T08:58:02.969Z,16.38
2019-04-06T08:59:11.256Z,16.48
2019-04-06T09:00:03.939Z,16.49
2019-04-06T09:01:02.942Z,16.61
2019-04-06T09:02:03.185Z,16.63
2019-04-06T09:03:02.956Z,16.61
2019-04-06T09:04:02.894Z,16.61
2019-04-06T09:05:02.968Z,16.78
2019-04-06T09:06:02.882Z,16.85
2019-04-06T09:07:02.867Z,16.93
2019-04-06T09:08:02.860Z,16.91
2019-04-06T09:09:02.862Z,17.03
2019-04-06T09:10:03.059Z,17.04
2019-04-06T09:11:02.832Z,17.16
2019-04-06T09:12:03.022Z,17.19
2019-04-06T09:13:02.822Z,17.22
2019-04-06T09:14:02.808Z,17.18
2019-04-06T09:15:02.796Z,17.07
2019-04-06T09:16:03.974Z,17.08
2019-04-06T09:17:02.749Z,17.19
2019-04-06T09:18:02.742Z,17.30
2019-04-06T09:19:02.734Z,17.37
2019-04-06T09:20:02.718Z,17.44
2019-04-06T09:21:02.728Z,17.40
2019-04-06T09:22:02.723Z,17.30
2019-04-06T09:23:02.688Z,17.23
2019-04-06T09:24:02.717Z,17.30
2019-04-06T09:25:02.664Z,17.16
2019-04-06T09:26:02.798Z,17.21
2019-04-06T09:27:02.968Z,17.16
2019-04-06T09:28:02.627Z,16.94
2019-04-06T09:29:02.769Z,16.91
2019-04-06T09:30:02.705Z,16.98
2019-04-06T09:31:02.596Z,17.14
2019-04-06T09:32:02.583Z,17.26
2019-04-06T09:33:02.641Z,17.36
2019-04-06T09:34:02.599Z,17.43
2019-04-06T09:35:02.702Z,17.28
2019-04-06T09:36:02.680Z,17.06
2019-04-06T09:37:02.535Z,16.82
2019-04-06T09:38:02.540Z,16.68
2019-04-06T09:39:02.749Z,16.53
2019-04-06T09:40:02.566Z,16.53
2019-04-06T09:41:02.761Z,16.79
2019-04-06T09:42:02.470Z,16.81
2019-04-06T09:43:02.459Z,16.88
2019-04-06T09:44:02.540Z,16.98
2019-04-06T09:45:02.477Z,17.08
2019-04-06T09:46:02.593Z,17.16
2019-04-06T09:47:02.452Z,17.21
2019-04-06T09:48:02.409Z,17.06
2019-04-06T09:49:02.480Z,16.98
2019-04-06T09:50:02.533Z,16.86
2019-04-06T09:51:02.674Z,16.58
2019-04-06T09:52:02.353Z,16.45
2019-04-06T09:53:02.394Z,16.57
2019-04-06T09:54:06.405Z,16.60
2019-04-06T09:55:02.323Z,16.63
2019-04-06T09:56:02.326Z,16.75
2019-04-06T09:57:02.485Z,16.76
2019-04-06T09:58:02.296Z,16.83
2019-04-06T09:59:02.276Z,16.85
2019-04-06T10:00:02.329Z,16.81
2019-04-06T10:01:02.260Z,16.81
2019-04-06T10:02:02.277Z,16.93
2019-04-06T10:03:02.230Z,16.93
2019-04-06T10:04:02.228Z,17.00
2019-04-06T10:05:02.242Z,17.04
2019-04-06T10:06:02.203Z,17.23
2019-04-06T10:07:02.190Z,17.34
2019-04-06T10:08:02.319Z,17.23
2019-04-06T10:09:02.167Z,17.30
2019-04-06T10:10:02.155Z,17.38
2019-04-06T10:11:02.434Z,17.44
2019-04-06T10:12:04.259Z,17.40
2019-04-06T10:13:02.131Z,17.26
2019-04-06T10:14:02.165Z,17.12
2019-04-06T10:15:02.101Z,17.11
2019-04-06T10:16:02.098Z,17.11
2019-04-06T10:17:02.084Z,17.14
2019-04-06T10:18:02.061Z,17.19
2019-04-06T10:19:02.114Z,17.19
2019-04-06T10:20:02.066Z,17.15
2019-04-06T10:21:02.032Z,17.16
2019-04-06T10:22:02.027Z,17.03
2019-04-06T10:23:02.003Z,16.98
2019-04-06T10:24:02.188Z,17.07
2019-04-06T10:25:02.280Z,17.15
2019-04-06T10:26:02.053Z,17.19
2019-04-06T10:27:01.962Z,17.25
2019-04-06T10:28:01.957Z,17.55
2019-04-06T10:29:02.061Z,17.62
2019-04-06T10:30:01.931Z,17.58
2019-04-06T10:31:02.266Z,17.59
2019-04-06T10:32:02.206Z,17.66
2019-04-06T10:33:01.945Z,17.66
2019-04-06T10:34:02.046Z,17.66
2019-04-06T10:35:01.876Z,17.68
2019-04-06T10:36:01.879Z,17.75
2019-04-06T10:37:01.852Z,17.77
2019-04-06T10:38:01.880Z,17.74
2019-04-06T10:39:01.828Z,17.77
2019-04-06T10:40:01.826Z,17.90
2019-04-06T10:41:01.813Z,18.00
2019-04-06T10:42:02.080Z,18.14
2019-04-06T10:43:01.996Z,18.25
2019-04-06T10:44:01.809Z,18.17
2019-04-06T10:45:01.858Z,18.25
2019-04-06T10:46:01.748Z,18.30
2019-04-06T10:47:01.739Z,18.33
2019-04-06T10:48:01.752Z,18.41
2019-04-06T10:49:01.725Z,18.27
2019-04-06T10:50:01.732Z,18.08
2019-04-06T10:51:01.699Z,17.86
2019-04-06T10:52:01.681Z,17.71
2019-04-06T10:53:02.217Z,17.70
2019-04-06T10:54:01.663Z,17.59
2019-04-06T10:55:01.749Z,17.66
2019-04-06T10:56:01.662Z,17.74
2019-04-06T10:57:01.627Z,17.64
2019-04-06T10:58:01.689Z,17.66
2019-04-06T10:59:03.257Z,17.54
2019-04-06T11:00:03.324Z,17.54
2019-04-06T11:01:01.590Z,17.40
2019-04-06T11:02:01.599Z,17.34
2019-04-06T11:03:01.583Z,17.43
2019-04-06T11:04:01.551Z,17.40
2019-04-06T11:05:01.562Z,17.25
2019-04-06T11:06:01.525Z,17.33
2019-04-06T11:07:01.526Z,17.22
2019-04-06T11:08:01.520Z,17.15
2019-04-06T11:09:01.491Z,16.98
2019-04-06T11:10:01.503Z,16.89
2019-04-06T11:11:02.768Z,16.86
2019-04-06T11:12:01.455Z,16.78
2019-04-06T11:13:01.445Z,16.56
2019-04-06T11:14:01.750Z,16.66
2019-04-06T11:15:01.423Z,16.73
2019-04-06T11:16:01.450Z,16.68
2019-04-06T11:17:01.406Z,16.68
2019-04-06T11:18:01.402Z,16.61
2019-04-06T11:19:01.518Z,16.78
2019-04-06T11:20:01.381Z,16.88
2019-04-06T11:21:01.365Z,16.89
2019-04-06T11:22:01.596Z,16.96
2019-04-06T11:23:01.333Z,17.21
2019-04-06T11:24:01.533Z,17.26
2019-04-06T11:25:01.326Z,17.31
2019-04-06T11:26:01.464Z,17.31
2019-04-06T11:27:01.290Z,17.25
2019-04-06T11:28:03.636Z,17.30
2019-04-06T11:29:01.272Z,17.33
2019-04-06T11:30:12.038Z,17.34
2019-04-06T11:31:02.246Z,17.31
2019-04-06T11:32:01.244Z,17.23
2019-04-06T11:33:01.503Z,17.31
2019-04-06T11:34:01.209Z,17.21
2019-04-06T11:35:01.330Z,17.34
2019-04-06T11:36:01.187Z,17.40
2019-04-06T11:37:01.189Z,17.41
2019-04-06T11:38:01.181Z,17.44
2019-04-06T11:39:01.547Z,17.40
2019-04-06T11:40:01.142Z,17.30
2019-04-06T11:41:01.137Z,17.18
2019-04-06T11:42:01.123Z,17.14
2019-04-06T11:43:01.106Z,17.15
2019-04-06T11:44:01.144Z,17.14
2019-04-06T11:45:01.163Z,17.16
2019-04-06T11:46:01.075Z,17.18
2019-04-06T11:47:01.159Z,17.18
2019-04-06T11:48:01.064Z,17.19
2019-04-06T11:49:01.058Z,17.03
2019-04-06T11:50:01.066Z,17.06
2019-04-06T11:51:01.019Z,16.96
2019-04-06T11:52:01.026Z,16.88
2019-04-06T11:53:01.001Z,16.81
2019-04-06T11:54:01.277Z,16.91
2019-04-06T11:55:00.974Z,16.88
2019-04-06T11:56:00.974Z,16.88
2019-04-06T11:57:00.952Z,16.93
2019-04-06T11:58:00.963Z,16.91
2019-04-06T11:59:00.940Z,17.16
2019-04-06T12:00:00.914Z,17.28
2019-04-06T12:01:01.302Z,17.38
2019-04-06T12:02:00.896Z,17.51
2019-04-06T12:03:00.884Z,17.49
2019-04-06T12:04:01.174Z,17.54
2019-04-06T12:05:00.865Z,17.66
2019-04-06T12:06:01.125Z,17.74
2019-04-06T12:07:01.719Z,17.79
2019-04-06T12:08:00.830Z,17.87
2019-04-06T12:09:00.823Z,17.92
2019-04-06T12:10:00.811Z,17.84
2019-04-06T12:11:00.833Z,17.95
2019-04-06T12:12:00.792Z,17.90
2019-04-06T12:13:00.797Z,18.00
2019-04-06T12:14:00.791Z,18.29
2019-04-06T12:15:00.748Z,18.33
2019-04-06T12:16:00.747Z,18.41
2019-04-06T12:17:00.882Z,18.37
2019-04-06T12:18:11.577Z,18.30
2019-04-06T12:19:00.822Z,18.37
2019-04-06T12:20:00.825Z,18.50
2019-04-06T12:21:00.758Z,18.75
2019-04-06T12:22:00.825Z,18.76
2019-04-06T12:23:00.918Z,18.82
2019-04-06T12:24:00.661Z,18.95
2019-04-06T12:25:00.655Z,19.16
2019-04-06T12:26:00.632Z,19.22
2019-04-06T12:27:00.820Z,19.26
2019-04-06T12:28:00.630Z,19.23
2019-04-06T12:29:00.640Z,19.16
2019-04-06T12:30:00.766Z,19.26
2019-04-06T12:31:00.568Z,19.32
2019-04-06T12:32:00.563Z,19.33
2019-04-06T12:33:00.578Z,19.41
2019-04-06T12:34:00.529Z,19.23
2019-04-06T12:35:00.540Z,19.31
2019-04-06T12:36:00.512Z,19.25
2019-04-06T12:37:00.499Z,19.11
2019-04-06T12:38:00.731Z,19.14
2019-04-06T12:39:00.662Z,19.21
2019-04-06T12:40:00.469Z,18.99
2019-04-06T12:41:00.753Z,19.10
2019-04-06T12:42:00.694Z,19.26
2019-04-06T12:43:00.436Z,19.13
2019-04-06T12:44:00.432Z,19.00
2019-04-06T12:45:00.435Z,19.04
2019-04-06T12:46:00.425Z,18.76
2019-04-06T12:47:00.391Z,18.85
2019-04-06T12:48:00.651Z,18.84
2019-04-06T12:49:00.371Z,18.66
2019-04-06T12:50:00.369Z,18.27
2019-04-06T12:51:00.548Z,18.10
2019-04-06T12:52:00.409Z,18.20
2019-04-06T12:53:00.327Z,18.12
2019-04-06T12:54:00.316Z,18.20
2019-04-06T12:55:00.304Z,18.21
2019-04-06T12:56:00.295Z,18.21
2019-04-06T12:57:00.317Z,18.02
2019-04-06T12:58:00.285Z,17.72
2019-04-06T12:59:00.286Z,17.75
2019-04-06T13:00:00.277Z,17.82
2019-04-06T13:01:00.240Z,17.84
2019-04-06T13:02:00.255Z,18.14
2019-04-06T13:03:00.227Z,18.14
2019-04-06T13:04:00.197Z,18.29